createdAt,value
2022-08-07T00:02:36.229Z,15.54
2022-08-07T00:04:56.733Z,15.51
2022-08-07T00:07:24.270Z,15.50
2022-08-07T00:10:18.820Z,15.47
2022-08-07T00:12:57.716Z,15.39
2022-08-07T00:15:37.755Z,15.43
2022-08-07T00:18:18.852Z,15.34
2022-08-07T00:20:49.187Z,15.28
2022-08-07T00:23:17.275Z,15.28
2022-08-07T00:25:45.794Z,15.27
2022-08-07T00:28:21.997Z,15.25
2022-08-07T00:30:49.634Z,15.24
2022-08-07T00:33:17.081Z,15.20
2022-08-07T00:35:49.470Z,15.16
2022-08-07T00:38:31.676Z,15.14
2022-08-07T00:40:59.581Z,15.10
2022-08-07T00:44:01.748Z,15.09
2022-08-07T00:46:15.976Z,14.81
2022-08-07T00:48:43.491Z,15.03
2022-08-07T00:51:11.381Z,15.00
2022-08-07T00:53:50.277Z,14.97
2022-08-07T00:56:22.872Z,14.95
2022-08-07T00:58:51.764Z,14.91
2022-08-07T01:01:20.183Z,14.88
2022-08-07T01:03:56.252Z,14.88
2022-08-07T01:06:27.915Z,14.84
2022-08-07T01:08:58.302Z,14.81
2022-08-07T01:12:09.983Z,14.81
2022-08-07T01:14:16.685Z,14.79
2022-08-07T01:16:46.952Z,14.79
2022-08-07T01:19:19.010Z,14.75
2022-08-07T01:21:49.523Z,14.73
2022-08-07T01:24:22.261Z,14.70
2022-08-07T01:26:51.883Z,14.70
2022-08-07T01:29:22.035Z,14.68
2022-08-07T01:31:50.057Z,14.69
2022-08-07T01:34:19.017Z,14.68
2022-08-07T01:36:52.495Z,14.67
2022-08-07T01:39:39.725Z,14.65
2022-08-07T01:42:40.136Z,14.61
2022-08-07T01:45:00.814Z,14.61
2022-08-07T01:48:18.214Z,14.58
2022-08-07T01:50:16.276Z,14.56
2022-08-07T01:52:54.331Z,14.55
2022-08-07T01:55:25.186Z,14.51
2022-08-07T01:58:06.972Z,14.50
2022-08-07T02:00:49.006Z,14.44
2022-08-07T02:03:21.860Z,14.45
2022-08-07T02:05:59.681Z,14.45
2022-08-07T02:08:31.057Z,14.42
2022-08-07T02:11:01.025Z,14.40
2022-08-07T02:13:57.335Z,14.39
2022-08-07T02:16:28.789Z,14.37
2022-08-07T02:19:02.854Z,14.35
2022-08-07T02:21:55.802Z,14.34
2022-08-07T02:24:24.722Z,14.32
2022-08-07T02:26:53.035Z,14.29
2022-08-07T02:29:21.950Z,14.26
2022-08-07T02:31:51.488Z,14.25
2022-08-07T02:34:22.192Z,13.91
2022-08-07T02:36:51.805Z,14.22
2022-08-07T02:39:43.097Z,14.20
2022-08-07T02:42:10.297Z,14.16
2022-08-07T02:44:47.819Z,14.18
2022-08-07T02:47:19.320Z,14.16
2022-08-07T02:49:58.807Z,14.13
2022-08-07T02:52:32.125Z,14.12
2022-08-07T02:55:01.783Z,14.12
2022-08-07T02:57:35.146Z,14.09
2022-08-07T03:00:05.022Z,14.05
2022-08-07T03:02:54.667Z,14.03
2022-08-07T03:05:23.232Z,14.01
2022-08-07T03:08:05.441Z,13.96
2022-08-07T03:10:35.978Z,13.92
2022-08-07T03:13:10.679Z,13.91
2022-08-07T03:15:55.527Z,13.90
2022-08-07T03:18:25.881Z,13.86
2022-08-07T03:21:02.622Z,13.85
2022-08-07T03:23:34.119Z,13.50
2022-08-07T03:26:21.211Z,13.82
2022-08-07T03:28:52.932Z,13.81
2022-08-07T03:31:24.400Z,13.80
2022-08-07T03:33:54.247Z,13.79
2022-08-07T03:36:23.143Z,13.76
2022-08-07T03:38:56.449Z,13.72
2022-08-07T03:41:42.349Z,13.74
2022-08-07T03:44:13.470Z,13.71
2022-08-07T03:47:14.089Z,13.70
2022-08-07T03:49:31.555Z,13.67
2022-08-07T03:52:01.834Z,13.65
2022-08-07T03:54:35.415Z,13.64
2022-08-07T03:57:10.196Z,13.61
2022-08-07T04:00:02.759Z,13.61
2022-08-07T04:02:31.987Z,13.58
2022-08-07T04:04:59.573Z,13.54
2022-08-07T04:07:36.197Z,13.53
2022-08-07T04:10:15.788Z,13.53
2022-08-07T04:12:47.482Z,13.53
2022-08-07T04:15:17.336Z,13.52
2022-08-07T04:18:30.757Z,13.49
2022-08-07T04:20:35.342Z,13.48
2022-08-07T04:23:06.609Z,13.50
2022-08-07T04:25:39.135Z,13.47
2022-08-07T04:28:08.097Z,13.48
2022-08-07T04:30:44.025Z,13.51
2022-08-07T04:33:25.347Z,13.47
2022-08-07T04:35:54.199Z,13.48
2022-08-07T04:38:22.785Z,13.50
2022-08-07T04:40:51.650Z,13.49
2022-08-07T04:43:21.977Z,13.49
2022-08-07T04:46:25.785Z,13.50
2022-08-07T04:49:01.737Z,13.50
2022-08-07T04:51:34.746Z,13.52
2022-08-07T04:54:09.047Z,13.53
2022-08-07T04:58:11.258Z,13.54
2022-08-07T05:00:11.476Z,13.57
2022-08-07T05:02:24.000Z,13.58
2022-08-07T05:04:55.066Z,13.60
2022-08-07T05:07:36.577Z,13.63
2022-08-07T05:10:07.708Z,13.66
2022-08-07T05:12:51.382Z,13.69
2022-08-07T05:15:25.351Z,13.68
2022-08-07T05:17:56.516Z,13.76
2022-08-07T05:20:26.974Z,13.78
2022-08-07T05:22:57.630Z,13.82
2022-08-07T05:25:54.567Z,13.88
2022-08-07T05:28:20.628Z,13.92
2022-08-07T05:30:52.132Z,13.95
2022-08-07T05:33:22.180Z,13.99
2022-08-07T05:35:50.673Z,14.03
2022-08-07T05:39:00.371Z,14.06
2022-08-07T05:41:14.125Z,14.12
2022-08-07T05:44:07.577Z,14.18
2022-08-07T05:46:31.680Z,14.27
2022-08-07T05:49:00.941Z,14.35
2022-08-07T05:51:40.724Z,14.46
2022-08-07T05:54:30.008Z,14.55
2022-08-07T05:56:57.983Z,14.64
2022-08-07T05:59:27.495Z,14.71
2022-08-07T06:01:58.143Z,14.81
2022-08-07T06:04:29.913Z,14.87
2022-08-07T06:07:03.443Z,14.91
2022-08-07T06:10:03.741Z,15.01
2022-08-07T06:12:20.844Z,15.16
2022-08-07T06:14:49.869Z,15.32
2022-08-07T06:17:18.097Z,15.45
2022-08-07T06:20:03.341Z,15.53
2022-08-07T06:22:38.477Z,15.66
2022-08-07T06:25:10.258Z,15.83
2022-08-07T06:27:59.906Z,15.96
2022-08-07T06:30:35.336Z,16.08
2022-08-07T06:33:04.800Z,16.23
2022-08-07T06:35:47.794Z,16.42
2022-08-07T06:38:28.487Z,16.68
2022-08-07T06:40:59.367Z,16.86
2022-08-07T06:43:27.591Z,17.17
2022-08-07T06:46:12.328Z,17.49
2022-08-07T06:48:42.177Z,17.69
2022-08-07T06:51:15.574Z,17.94
2022-08-07T06:55:28.955Z,17.82
2022-08-07T06:56:51.450Z,18.19
2022-08-07T07:00:12.604Z,18.50
2022-08-07T07:02:09.436Z,18.79
2022-08-07T07:04:43.529Z,18.96
2022-08-07T07:08:00.368Z,19.02
2022-08-07T07:10:11.068Z,19.22
2022-08-07T07:12:48.562Z,19.42
2022-08-07T07:15:24.153Z,19.56
2022-08-07T07:17:55.858Z,19.77
2022-08-07T07:20:28.686Z,19.80
2022-08-07T07:24:05.622Z,19.88
2022-08-07T07:26:33.482Z,20.23
2022-08-07T07:28:48.399Z,20.46
2022-08-07T07:31:30.276Z,20.70
2022-08-07T07:34:09.235Z,20.82
2022-08-07T07:36:40.517Z,21.06
2022-08-07T07:39:11.289Z,20.70
2022-08-07T07:42:02.109Z,20.09
2022-08-07T07:44:29.487Z,20.71
2022-08-07T07:47:09.291Z,20.60
2022-08-07T07:50:35.339Z,20.85
2022-08-07T07:52:33.190Z,20.57
2022-08-07T07:55:03.441Z,20.71
2022-08-07T07:57:51.725Z,20.79
2022-08-07T08:00:29.167Z,21.39
2022-08-07T08:03:06.111Z,21.72
2022-08-07T08:05:50.448Z,22.03
2022-08-07T08:08:35.708Z,22.44
2022-08-07T08:11:07.976Z,22.66
2022-08-07T08:13:54.592Z,22.16
2022-08-07T08:16:25.784Z,21.64
2022-08-07T08:18:57.866Z,22.27
2022-08-07T08:21:56.033Z,22.43
2022-08-07T08:24:54.847Z,21.21
2022-08-07T08:27:35.543Z,21.93
2022-08-07T08:30:05.605Z,22.42
2022-08-07T08:32:38.409Z,23.47
2022-08-07T08:35:07.795Z,23.37
2022-08-07T08:38:01.185Z,22.84
2022-08-07T08:40:28.792Z,23.30
2022-08-07T08:43:00.951Z,24.35
2022-08-07T08:45:41.521Z,24.83
2022-08-07T08:48:28.395Z,25.77
2022-08-07T08:51:03.411Z,26.46
2022-08-07T08:53:45.948Z,26.53
2022-08-07T08:56:17.308Z,25.92
2022-08-07T08:58:54.286Z,26.00
2022-08-07T09:01:29.534Z,26.83
2022-08-07T09:04:00.809Z,26.90
2022-08-07T09:06:33.821Z,27.52
2022-08-07T09:09:09.552Z,27.76
2022-08-07T09:11:56.209Z,27.99
2022-08-07T09:14:35.037Z,28.06
2022-08-07T09:17:11.539Z,28.24
2022-08-07T09:19:52.619Z,24.77
2022-08-07T09:24:29.060Z,25.20
2022-08-07T09:25:24.334Z,26.02
2022-08-07T09:27:59.628Z,26.00
2022-08-07T09:30:33.975Z,25.47
2022-08-07T09:33:24.562Z,26.25
2022-08-07T09:36:04.709Z,26.46
2022-08-07T09:38:40.099Z,26.63
2022-08-07T09:41:14.043Z,26.60
2022-08-07T09:44:06.563Z,26.41
2022-08-07T09:47:49.623Z,25.84
2022-08-07T09:50:00.490Z,25.92
2022-08-07T09:52:35.799Z,25.43
2022-08-07T09:55:06.398Z,25.95
2022-08-07T09:58:09.992Z,26.38
2022-08-07T10:00:48.335Z,26.29
2022-08-07T10:04:05.603Z,26.40
2022-08-07T10:06:32.583Z,26.51
2022-08-07T10:09:23.595Z,25.41
2022-08-07T10:12:16.925Z,25.63
2022-08-07T10:15:08.515Z,25.83
2022-08-07T10:18:01.042Z,26.09
2022-08-07T10:20:38.522Z,26.40
2022-08-07T10:24:05.006Z,26.76
2022-08-07T10:26:25.878Z,26.35
2022-08-07T10:29:04.659Z,26.38
2022-08-07T10:31:45.200Z,26.36
2022-08-07T10:34:31.746Z,25.13
2022-08-07T10:37:10.205Z,25.17
2022-08-07T10:40:02.937Z,25.16
2022-08-07T10:42:37.400Z,26.27
2022-08-07T10:45:12.746Z,26.03
2022-08-07T10:47:53.339Z,26.00
2022-08-07T10:50:26.127Z,26.77
2022-08-07T10:53:05.212Z,26.83
2022-08-07T10:55:43.451Z,26.81
2022-08-07T10:58:18.793Z,26.29
2022-08-07T11:01:12.250Z,25.64
2022-08-07T11:03:52.551Z,26.27
2022-08-07T11:06:30.058Z,26.90
2022-08-07T11:09:01.240Z,27.50
2022-08-07T11:11:35.664Z,27.75
2022-08-07T11:14:43.607Z,27.98
2022-08-07T11:17:00.886Z,28.25
2022-08-07T11:19:34.655Z,28.57
2022-08-07T11:22:06.180Z,28.35
2022-08-07T11:24:51.850Z,28.89
2022-08-07T11:27:33.612Z,28.71
2022-08-07T11:30:18.314Z,27.28
2022-08-07T11:32:49.705Z,26.58
2022-08-07T11:35:25.112Z,27.78
2022-08-07T11:38:10.301Z,27.87
2022-08-07T11:40:49.460Z,27.66
2022-08-07T11:43:41.745Z,27.37
2022-08-07T11:46:12.815Z,28.22
2022-08-07T11:49:51.563Z,27.19
2022-08-07T11:51:48.601Z,28.89
2022-08-07T11:54:30.263Z,28.68
2022-08-07T11:57:04.247Z,29.14
2022-08-07T12:00:11.592Z,29.96
2022-08-07T12:02:34.985Z,30.39
2022-08-07T12:05:15.127Z,29.62
2022-08-07T12:08:03.838Z,30.15
2022-08-07T12:10:34.780Z,30.93
2022-08-07T12:13:11.583Z,31.30
2022-08-07T12:16:07.010Z,31.42
2022-08-07T12:18:39.206Z,31.53
2022-08-07T12:21:55.098Z,31.25
2022-08-07T12:24:37.332Z,31.39
2022-08-07T12:26:58.723Z,32.22
2022-08-07T12:29:37.582Z,33.21
2022-08-07T12:32:12.752Z,32.49
2022-08-07T12:34:42.145Z,33.28
2022-08-07T12:37:23.397Z,33.67
2022-08-07T12:39:58.703Z,33.79
2022-08-07T12:42:28.573Z,34.00
2022-08-07T12:45:05.647Z,34.10
2022-08-07T12:47:39.752Z,34.18
2022-08-07T12:50:38.954Z,32.27
2022-08-07T12:53:05.057Z,33.29
2022-08-07T12:56:02.638Z,32.68
2022-08-07T12:58:35.267Z,33.93
2022-08-07T13:01:06.249Z,34.67
2022-08-07T13:04:04.563Z,35.63
2022-08-07T13:07:00.393Z,35.57
2022-08-07T13:10:20.388Z,35.20
2022-08-07T13:12:27.678Z,34.97
2022-08-07T13:15:03.023Z,35.16
2022-08-07T13:17:42.510Z,35.62
2022-08-07T13:20:16.596Z,35.76
2022-08-07T13:22:52.455Z,35.91
2022-08-07T13:25:29.864Z,35.84
2022-08-07T13:28:10.989Z,35.47
2022-08-07T13:30:49.119Z,35.39
2022-08-07T13:34:30.113Z,35.51
2022-08-07T13:36:18.082Z,35.64
2022-08-07T13:38:48.822Z,35.81
2022-08-07T13:41:22.220Z,35.05
2022-08-07T13:43:56.167Z,35.32
2022-08-07T13:46:32.871Z,35.80
2022-08-07T13:49:03.477Z,35.68
2022-08-07T13:52:22.223Z,35.76
2022-08-07T13:54:28.852Z,35.80
2022-08-07T13:57:09.544Z,35.62
2022-08-07T13:59:40.325Z,35.50
2022-08-07T14:02:15.283Z,36.06
2022-08-07T14:04:50.377Z,36.27
2022-08-07T14:07:25.318Z,36.23
2022-08-07T14:10:16.573Z,36.16
2022-08-07T14:12:49.300Z,36.64
2022-08-07T14:15:28.412Z,36.33
2022-08-07T14:18:24.139Z,34.05
2022-08-07T14:20:54.757Z,34.79
2022-08-07T14:23:31.623Z,35.03
2022-08-07T14:26:28.502Z,35.68
2022-08-07T14:29:06.005Z,34.63
2022-08-07T14:31:56.597Z,34.37
2022-08-07T14:34:46.224Z,34.45
2022-08-07T14:37:16.459Z,34.65
2022-08-07T14:40:18.232Z,34.82
2022-08-07T14:43:01.454Z,34.15
2022-08-07T14:45:46.574Z,34.49
2022-08-07T14:51:07.310Z,34.15
2022-08-07T14:54:08.893Z,34.41
2022-08-07T14:56:35.073Z,34.49
2022-08-07T14:59:13.616Z,33.36
2022-08-07T15:01:53.373Z,34.09
2022-08-07T15:04:25.119Z,34.57
2022-08-07T15:06:53.115Z,34.64
2022-08-07T15:09:58.529Z,34.61
2022-08-07T15:12:25.902Z,33.67
2022-08-07T15:15:07.550Z,33.32
2022-08-07T15:17:54.954Z,33.75
2022-08-07T15:20:33.265Z,33.31
2022-08-07T15:23:20.514Z,33.22
2022-08-07T15:25:52.203Z,33.29
2022-08-07T15:28:32.368Z,33.05
2022-08-07T15:31:06.548Z,32.55
2022-08-07T15:37:03.371Z,31.48
2022-08-07T15:39:14.181Z,31.04
2022-08-07T15:42:42.366Z,30.98
2022-08-07T15:48:00.354Z,30.72
2022-08-07T15:53:18.204Z,30.74
2022-08-07T15:56:01.751Z,30.85
2022-08-07T15:58:34.094Z,30.74
2022-08-07T16:01:03.407Z,30.53
2022-08-07T16:03:47.152Z,29.74
2022-08-07T16:06:17.769Z,29.53
2022-08-07T16:08:48.130Z,29.26
2022-08-07T16:11:29.045Z,28.98
2022-08-07T16:14:03.019Z,29.11
2022-08-07T16:16:48.965Z,29.08
2022-08-07T16:19:42.120Z,29.05
2022-08-07T16:22:33.979Z,28.90
2022-08-07T16:25:07.581Z,28.70
2022-08-07T16:27:40.635Z,28.51
2022-08-07T16:30:30.116Z,28.46
2022-08-07T16:34:02.756Z,28.04
2022-08-07T16:36:04.364Z,27.60
2022-08-07T16:38:59.994Z,27.23
2022-08-07T16:41:41.207Z,26.93
2022-08-07T16:44:47.168Z,26.59
2022-08-07T16:47:42.272Z,26.30
2022-08-07T16:50:36.335Z,25.54
2022-08-07T16:53:57.197Z,25.24
2022-08-07T16:56:01.891Z,24.86
2022-08-07T16:59:02.302Z,24.87
2022-08-07T17:01:34.385Z,24.73
2022-08-07T17:04:08.455Z,24.28
2022-08-07T17:07:02.993Z,24.19
2022-08-07T17:10:06.885Z,24.00
2022-08-07T17:12:33.809Z,23.98
2022-08-07T17:15:05.304Z,23.90
2022-08-07T17:17:46.667Z,23.80
2022-08-07T17:20:20.892Z,23.63
2022-08-07T17:22:57.119Z,23.54
2022-08-07T17:25:47.887Z,23.53
2022-08-07T17:28:19.603Z,23.36
2022-08-07T17:30:58.583Z,23.23
2022-08-07T17:34:10.351Z,23.27
2022-08-07T17:36:20.820Z,23.10
2022-08-07T17:38:55.641Z,23.03
2022-08-07T17:42:04.282Z,22.96
2022-08-07T17:44:35.051Z,22.88
2022-08-07T17:47:17.069Z,22.76
2022-08-07T17:49:51.972Z,22.69
2022-08-07T17:52:30.565Z,22.49
2022-08-07T17:55:05.638Z,22.37
2022-08-07T17:57:58.752Z,22.34
2022-08-07T18:00:34.139Z,22.28
2022-08-07T18:03:19.057Z,22.22
2022-08-07T18:06:01.689Z,22.16
2022-08-07T18:08:33.673Z,22.09
2022-08-07T18:12:06.234Z,21.96
2022-08-07T18:14:01.515Z,21.90
2022-08-07T18:16:34.049Z,21.77
2022-08-07T18:21:12.639Z,21.69
2022-08-07T18:22:06.250Z,21.70
2022-08-07T18:24:43.330Z,21.61
2022-08-07T18:27:21.037Z,21.52
2022-08-07T18:30:31.033Z,21.46
2022-08-07T18:33:10.807Z,21.35
2022-08-07T18:35:52.016Z,21.28
2022-08-07T18:38:58.722Z,21.27
2022-08-07T18:41:20.941Z,21.19
2022-08-07T18:43:59.123Z,21.13
2022-08-07T18:46:29.399Z,21.05
2022-08-07T18:50:31.017Z,20.98
2022-08-07T18:52:34.657Z,20.96
2022-08-07T18:54:52.633Z,20.94
2022-08-07T18:57:31.016Z,20.85
2022-08-07T19:00:32.842Z,20.80
2022-08-07T19:03:12.106Z,20.71
2022-08-07T19:06:02.040Z,20.63
2022-08-07T19:08:34.522Z,20.53
2022-08-07T19:11:36.475Z,20.52
2022-08-07T19:14:08.008Z,20.40
2022-08-07T19:17:08.063Z,20.35
2022-08-07T19:19:37.314Z,20.31
2022-08-07T19:22:11.209Z,19.91
2022-08-07T19:24:43.189Z,20.16
2022-08-07T19:28:28.398Z,20.13
2022-08-07T19:31:06.121Z,20.08
2022-08-07T19:32:52.470Z,20.02
2022-08-07T19:35:28.267Z,19.96
2022-08-07T19:38:02.300Z,19.89
2022-08-07T19:40:33.407Z,19.84
2022-08-07T19:43:08.441Z,19.79
2022-08-07T19:46:05.959Z,19.72
2022-08-07T19:48:42.992Z,19.67
2022-08-07T19:51:19.229Z,19.61
2022-08-07T19:54:33.334Z,19.57
2022-08-07T19:58:02.557Z,19.54
2022-08-07T19:59:40.813Z,19.50
2022-08-07T20:02:19.692Z,19.46
2022-08-07T20:04:51.979Z,19.41
2022-08-07T20:07:45.604Z,19.37
2022-08-07T20:10:37.683Z,19.33
2022-08-07T20:13:06.135Z,19.29
2022-08-07T20:15:37.163Z,19.25
2022-08-07T20:18:18.182Z,19.21
2022-08-07T20:20:50.446Z,19.17
2022-08-07T20:23:32.801Z,19.12
2022-08-07T20:26:09.878Z,19.08
2022-08-07T20:28:39.225Z,19.00
2022-08-07T20:31:21.016Z,18.98
2022-08-07T20:33:56.730Z,18.94
2022-08-07T20:36:28.303Z,18.91
2022-08-07T20:39:00.404Z,18.86
2022-08-07T20:41:50.456Z,18.81
2022-08-07T20:44:19.773Z,18.76
2022-08-07T20:46:48.466Z,18.71
2022-08-07T20:49:58.083Z,18.69
2022-08-07T20:52:50.405Z,18.66
2022-08-07T20:55:12.221Z,18.64
2022-08-07T20:57:47.394Z,18.60
2022-08-07T21:00:31.948Z,18.56
2022-08-07T21:03:00.729Z,18.53
2022-08-07T21:05:52.723Z,18.50
2022-08-07T21:08:37.247Z,18.42
2022-08-07T21:11:10.456Z,18.40
2022-08-07T21:13:57.432Z,18.38
2022-08-07T21:16:29.300Z,18.33
2022-08-07T21:18:58.464Z,18.33
2022-08-07T21:21:30.008Z,18.26
2022-08-07T21:24:07.097Z,18.24
2022-08-07T21:26:42.905Z,18.19
2022-08-07T21:29:18.151Z,18.19
2022-08-07T21:32:10.849Z,18.16
2022-08-07T21:34:46.239Z,18.16
2022-08-07T21:37:21.326Z,18.12
2022-08-07T21:39:55.179Z,18.07
2022-08-07T21:42:46.157Z,18.04
2022-08-07T21:46:05.467Z,18.02
2022-08-07T21:48:28.972Z,17.98
2022-08-07T21:51:02.972Z,17.95
2022-08-07T21:53:33.354Z,17.90
2022-08-07T21:56:36.655Z,17.89
2022-08-07T21:59:08.141Z,17.86
2022-08-07T22:02:11.222Z,17.80
2022-08-07T22:04:27.939Z,17.77
2022-08-07T22:06:59.108Z,17.71
2022-08-07T22:09:31.468Z,17.67
2022-08-07T22:12:10.276Z,17.65
2022-08-07T22:14:59.424Z,17.62
2022-08-07T22:17:35.833Z,17.57
2022-08-07T22:20:08.694Z,17.52
2022-08-07T22:22:51.517Z,17.50
2022-08-07T22:25:20.217Z,17.45
2022-08-07T22:28:07.675Z,17.43
2022-08-07T22:30:53.004Z,17.39
2022-08-07T22:33:52.567Z,17.34
2022-08-07T22:36:17.747Z,17.31
2022-08-07T22:38:49.859Z,17.31
2022-08-07T22:41:21.487Z,17.29
2022-08-07T22:44:03.531Z,17.24
2022-08-07T22:47:02.874Z,17.22
2022-08-07T22:49:39.401Z,17.17
2022-08-07T22:52:40.156Z,17.13
2022-08-07T22:55:30.099Z,17.08
2022-08-07T22:58:16.421Z,17.07
2022-08-07T23:00:56.562Z,17.04
2022-08-07T23:03:58.862Z,17.02
2022-08-07T23:06:35.571Z,16.99
2022-08-07T23:10:06.455Z,16.98
2022-08-07T23:12:21.003Z,16.93
2022-08-07T23:15:08.736Z,16.90
2022-08-07T23:17:45.195Z,16.90
2022-08-07T23:20:40.269Z,16.83
2022-08-07T23:24:05.680Z,16.80
2022-08-07T23:26:19.016Z,16.75
2022-08-07T23:28:58.543Z,16.72
2022-08-07T23:32:50.162Z,16.67
2022-08-07T23:34:38.155Z,16.65
2022-08-07T23:37:22.585Z,16.63
2022-08-07T23:40:00.835Z,16.61
2022-08-07T23:42:40.189Z,16.59
2022-08-07T23:45:15.451Z,16.55
2022-08-07T23:48:20.081Z,16.52
2022-08-07T23:50:54.581Z,16.49
2022-08-07T23:53:50.860Z,16.46
2022-08-07T23:56:20.823Z,16.41
2022-08-07T23:58:54.912Z,16.41
